KSMO/SMO METAR and TAF weather

Enter ICAO airport designator
Station Type Date Time Source
KSMO METAR 2019/04/18 13:51 UTC NOAA

KSMO 181351Z 04003KT 10SM CLR 14/11 A3010 RMK AO2 SLP192 T01390106


Station Type Date Time Source
KSMO Decoded METAR 2019/04/18 13:51 UTC NOAA

SANTA MONICA MUNICIPAL AIRPORT , CA, United States (KSMO) 34-01N 118-27W 57M
Apr 18, 2019 - 09:51 AM EDT / 2019.04.18 1351 UTC
Wind: from the NE (040 degrees) at 3 MPH (3 KT):0
Visibility: 10 mile(s):0
Sky conditions: clear
Temperature: 57.0 F (13.9 C)
Dew Point: 51.1 F (10.6 C)
Relative Humidity: 80%
Pressure (altimeter): 30.1 in. Hg (1019 hPa)
ob: KSMO 181351Z 04003KT 10SM CLR 14/11 A3010 RMK AO2 SLP192 T01390106
cycle: 14

Station Type Date Time Source
KSMO TAF 2019/04/18 12:31 UTC NOAA

TAF KSMO 181131Z 1812/1912 VRB03KT P6SM SCT250
FM181800 24009KT P6SM SCT250
FM190300 VRB03KT P6SM SCT250

Example: see airport list